createdAt,value
2022-11-04T00:01:22.602Z,14.07
2022-11-04T00:04:26.749Z,14.07
2022-11-04T00:07:47.333Z,14.47
2022-11-04T00:11:15.486Z,12.53
2022-11-04T00:14:19.741Z,13.23
2022-11-04T00:17:22.801Z,13.57
2022-11-04T00:20:43.231Z,12.30
2022-11-04T00:24:14.734Z,12.13
2022-11-04T00:27:37.608Z,12.53
2022-11-04T00:30:39.789Z,12.50
2022-11-04T00:33:41.660Z,12.67
2022-11-04T00:36:43.874Z,13.07
2022-11-04T00:39:45.923Z,12.20
2022-11-04T00:42:48.165Z,12.93
2022-11-04T00:45:50.116Z,13.63
2022-11-04T00:48:52.387Z,12.20
2022-11-04T00:51:54.312Z,12.23
2022-11-04T00:54:56.441Z,13.27
2022-11-04T00:57:59.199Z,13.40
2022-11-04T01:01:06.863Z,12.57
2022-11-04T01:04:09.364Z,13.13
2022-11-04T01:07:11.531Z,12.47
2022-11-04T01:10:13.558Z,12.43
2022-11-04T01:13:15.689Z,13.33
2022-11-04T01:16:19.085Z,12.03
2022-11-04T01:19:21.455Z,14.27
2022-11-04T01:22:23.398Z,13.93
2022-11-04T01:25:25.966Z,16.20
2022-11-04T01:28:27.864Z,17.80
2022-11-04T01:31:31.403Z,19.33
2022-11-04T01:34:33.329Z,20.30
2022-11-04T01:37:35.599Z,19.80
2022-11-04T01:40:39.477Z,20.23
2022-11-04T01:44:26.362Z,19.60
2022-11-04T01:47:39.904Z,18.67
2022-11-04T01:50:42.076Z,15.93
2022-11-04T01:53:45.003Z,16.53
2022-11-04T01:56:48.779Z,14.67
2022-11-04T01:59:51.032Z,15.10
2022-11-04T02:03:01.827Z,14.93
2022-11-04T02:06:05.993Z,14.10
2022-11-04T02:12:34.433Z,13.23
2022-11-04T02:16:16.949Z,12.83
2022-11-04T02:19:36.903Z,13.17
2022-11-04T02:23:17.918Z,12.43
2022-11-04T02:26:51.286Z,12.90
2022-11-04T02:30:14.316Z,12.03
2022-11-04T02:33:29.743Z,12.60
2022-11-04T02:36:50.638Z,12.27
2022-11-04T02:40:06.467Z,12.23
2022-11-04T02:43:11.793Z,13.43
2022-11-04T02:46:22.328Z,14.67
2022-11-04T02:49:33.897Z,13.73
2022-11-04T02:53:09.117Z,13.03
2022-11-04T02:56:13.453Z,14.03
2022-11-04T02:59:22.046Z,13.87
2022-11-04T03:02:33.542Z,12.90
2022-11-04T03:05:39.091Z,14.27
2022-11-04T03:08:48.684Z,14.50
2022-11-04T03:11:55.818Z,16.13
2022-11-04T03:15:03.983Z,16.10
2022-11-04T03:18:29.348Z,16.53
2022-11-04T03:21:36.978Z,17.13
2022-11-04T03:24:40.412Z,16.70
2022-11-04T03:27:50.051Z,17.97
2022-11-04T03:30:56.428Z,17.73
2022-11-04T03:33:58.852Z,16.97
2022-11-04T03:37:01.237Z,18.07
2022-11-04T03:40:04.694Z,17.43
2022-11-04T03:43:21.498Z,14.47
2022-11-04T03:46:25.396Z,16.17
2022-11-04T03:49:27.681Z,15.83
2022-11-04T03:52:29.897Z,14.70
2022-11-04T03:55:59.050Z,14.03
2022-11-04T03:59:27.161Z,15.13
2022-11-04T04:02:58.794Z,14.57
2022-11-04T04:06:29.616Z,14.00
2022-11-04T04:09:39.743Z,13.47
2022-11-04T04:12:42.401Z,14.33
2022-11-04T04:15:50.673Z,15.20
2022-11-04T04:18:58.786Z,15.17
2022-11-04T04:22:11.755Z,15.00
2022-11-04T04:25:35.633Z,15.23
2022-11-04T04:28:39.076Z,14.67
2022-11-04T04:31:50.746Z,15.97
2022-11-04T04:35:12.777Z,14.60
2022-11-04T04:38:45.283Z,15.73
2022-11-04T04:42:07.088Z,16.17
2022-11-04T04:45:10.962Z,15.47
2022-11-04T04:48:13.753Z,15.00
2022-11-04T04:51:16.279Z,14.53
2022-11-04T04:54:18.231Z,15.43
2022-11-04T04:57:20.335Z,15.13
2022-11-04T05:00:22.408Z,14.60
2022-11-04T05:03:25.185Z,14.57
2022-11-04T05:06:27.133Z,13.60
2022-11-04T05:09:29.354Z,15.07
2022-11-04T05:12:51.226Z,16.63
2022-11-04T05:15:53.888Z,18.03
2022-11-04T05:18:55.814Z,19.90
2022-11-04T05:21:58.746Z,21.77
2022-11-04T05:25:00.630Z,22.90
2022-11-04T05:28:04.104Z,22.73
2022-11-04T05:31:06.952Z,23.20
2022-11-04T05:34:11.513Z,23.20
2022-11-04T05:37:13.423Z,23.50
2022-11-04T05:40:15.735Z,23.03
2022-11-04T05:43:17.614Z,22.87
2022-11-04T05:46:20.002Z,23.00
2022-11-04T05:49:22.064Z,24.50
2022-11-04T05:52:24.237Z,21.53
2022-11-04T05:55:26.811Z,22.00
2022-11-04T05:58:28.974Z,21.93
2022-11-04T06:01:30.928Z,21.50
2022-11-04T06:04:33.552Z,20.30
2022-11-04T06:07:35.755Z,19.33
2022-11-04T06:10:37.988Z,20.40
2022-11-04T06:13:39.949Z,19.07
2022-11-04T06:16:42.070Z,20.03
2022-11-04T06:19:44.209Z,19.80
2022-11-04T06:22:46.370Z,19.60
2022-11-04T06:25:48.306Z,20.10
2022-11-04T06:28:50.734Z,21.00
2022-11-04T06:31:52.717Z,19.80
2022-11-04T06:34:55.108Z,19.80
2022-11-04T06:37:57.353Z,19.33
2022-11-04T06:40:59.868Z,19.73
2022-11-04T06:44:01.789Z,20.23
2022-11-04T06:47:04.582Z,18.60
2022-11-04T06:50:06.769Z,18.17
2022-11-04T06:53:09.104Z,20.27
2022-11-04T06:56:11.278Z,20.73
2022-11-04T06:59:19.208Z,19.03
2022-11-04T07:02:21.236Z,21.17
2022-11-04T07:05:23.739Z,22.00
2022-11-04T07:08:25.600Z,21.10
2022-11-04T07:11:31.516Z,20.10
2022-11-04T07:14:33.431Z,20.57
2022-11-04T07:17:35.744Z,20.23
2022-11-04T07:20:37.825Z,19.90
2022-11-04T07:23:40.531Z,18.03
2022-11-04T07:26:42.618Z,17.87
2022-11-04T07:29:44.758Z,18.33
2022-11-04T07:32:47.377Z,17.63
2022-11-04T07:35:54.029Z,17.80
2022-11-04T07:38:57.588Z,18.20
2022-11-04T07:41:59.931Z,17.53
2022-11-04T07:45:02.821Z,15.57
2022-11-04T07:48:05.047Z,16.70
2022-11-04T07:51:09.093Z,16.63
2022-11-04T07:54:11.311Z,16.63
2022-11-04T07:57:13.367Z,16.10
2022-11-04T08:00:16.514Z,16.07
2022-11-04T08:03:18.526Z,15.80
2022-11-04T08:06:22.441Z,15.60
2022-11-04T08:09:24.549Z,15.30
2022-11-04T08:12:27.803Z,14.43
2022-11-04T08:15:29.750Z,14.17
2022-11-04T08:18:33.645Z,14.00
2022-11-04T08:21:35.591Z,14.07
2022-11-04T08:24:38.117Z,14.33
2022-11-04T08:27:40.711Z,13.73
2022-11-04T08:30:56.430Z,14.97
2022-11-04T08:33:58.438Z,15.07
2022-11-04T08:37:02.092Z,14.27
2022-11-04T08:40:05.292Z,14.23
2022-11-04T08:43:08.834Z,14.02
2022-11-04T08:46:11.492Z,14.75
2022-11-04T08:49:19.519Z,13.85
2022-11-04T08:52:24.249Z,14.13
2022-11-04T08:55:29.521Z,14.02
2022-11-04T08:58:31.518Z,14.10
2022-11-04T09:01:36.386Z,13.88
2022-11-04T09:04:38.418Z,14.60
2022-11-04T09:07:41.311Z,13.85
2022-11-04T09:10:45.439Z,14.30
2022-11-04T09:13:47.693Z,14.90
2022-11-04T09:16:49.748Z,15.07
2022-11-04T09:19:52.250Z,14.13
2022-11-04T09:22:56.151Z,15.03
2022-11-04T09:26:03.304Z,14.23
2022-11-04T09:29:06.773Z,15.37
2022-11-04T09:32:09.106Z,14.50
2022-11-04T09:35:11.747Z,14.70
2022-11-04T09:38:14.153Z,14.63
2022-11-04T09:41:47.294Z,14.57
2022-11-04T09:45:22.102Z,14.63
2022-11-04T09:48:40.855Z,14.82
2022-11-04T09:51:55.235Z,15.05
2022-11-04T09:55:13.365Z,14.50
2022-11-04T09:58:15.696Z,14.52
2022-11-04T10:01:30.654Z,13.85
2022-11-04T10:04:49.165Z,14.82
2022-11-04T10:08:15.702Z,15.20
2022-11-04T10:11:40.269Z,14.68
2022-11-04T10:14:55.504Z,15.20
2022-11-04T10:18:03.188Z,13.48
2022-11-04T10:21:40.423Z,14.57
2022-11-04T10:25:05.959Z,16.45
2022-11-04T10:28:13.377Z,16.58
2022-11-04T10:31:18.458Z,17.40
2022-11-04T10:34:45.644Z,17.15
2022-11-04T10:37:53.072Z,16.77
2022-11-04T10:40:55.786Z,15.65
2022-11-04T10:44:05.939Z,16.52
2022-11-04T10:47:18.763Z,16.00
2022-11-04T10:50:44.816Z,15.07
2022-11-04T10:53:46.785Z,16.17
2022-11-04T10:56:56.022Z,15.70
2022-11-04T11:00:00.688Z,17.55
2022-11-04T11:03:02.920Z,17.75
2022-11-04T11:06:15.499Z,15.57
2022-11-04T11:09:32.424Z,17.88
2022-11-04T11:12:56.182Z,18.13
2022-11-04T11:16:18.737Z,17.55
2022-11-04T11:19:22.781Z,18.10
2022-11-04T11:22:35.430Z,17.20
2022-11-04T11:25:45.354Z,17.95
2022-11-04T11:28:59.212Z,16.02
2022-11-04T11:32:01.563Z,15.90
2022-11-04T11:35:07.699Z,16.85
2022-11-04T11:38:24.263Z,16.52
2022-11-04T11:41:34.155Z,17.17
2022-11-04T11:44:46.955Z,16.08
2022-11-04T11:47:54.865Z,17.13
2022-11-04T11:51:01.278Z,16.60
2022-11-04T11:54:18.738Z,17.83
2022-11-04T11:57:45.210Z,17.90
2022-11-04T12:01:16.702Z,16.35
2022-11-04T12:11:27.974Z,16.17
2022-11-04T12:14:49.193Z,17.10
2022-11-04T12:18:28.354Z,16.05
2022-11-04T12:21:35.422Z,15.70
2022-11-04T12:24:53.287Z,15.40
2022-11-04T12:28:22.365Z,15.05
2022-11-04T12:31:30.378Z,14.57
2022-11-04T12:34:54.251Z,15.65
2022-11-04T12:38:31.580Z,15.32
2022-11-04T12:42:19.514Z,14.98
2022-11-04T12:45:32.546Z,14.82
2022-11-04T12:49:02.991Z,14.77
2022-11-04T12:52:31.300Z,15.63
2022-11-04T12:55:52.131Z,16.08
2022-11-04T12:59:15.311Z,15.57
2022-11-04T13:02:28.729Z,15.38
2022-11-04T13:05:38.210Z,15.75
2022-11-04T13:08:43.600Z,15.82
2022-11-04T13:11:58.934Z,14.60
2022-11-04T13:15:04.958Z,15.40
2022-11-04T13:18:11.458Z,14.65
2022-11-04T13:21:21.679Z,15.93
2022-11-04T13:24:31.919Z,14.82
2022-11-04T13:27:39.074Z,16.13
2022-11-04T13:30:57.672Z,17.02
2022-11-04T13:34:39.357Z,15.63
2022-11-04T13:38:03.588Z,16.47
2022-11-04T13:41:24.455Z,16.30
2022-11-04T13:44:30.003Z,16.23
2022-11-04T13:47:42.972Z,15.73
2022-11-04T13:50:44.885Z,15.98
2022-11-04T13:53:53.482Z,16.45
2022-11-04T13:57:18.054Z,16.42
2022-11-04T14:00:23.866Z,17.40
2022-11-04T14:03:28.651Z,16.35
2022-11-04T14:06:56.094Z,17.43
2022-11-04T14:09:58.393Z,16.43
2022-11-04T14:13:29.753Z,21.27
2022-11-04T14:16:39.487Z,17.07
2022-11-04T14:19:59.376Z,17.97
2022-11-04T14:23:03.971Z,17.93
2022-11-04T14:26:17.740Z,17.87
2022-11-04T14:29:26.200Z,18.03
2022-11-04T14:32:34.847Z,18.43
2022-11-04T14:35:37.042Z,19.03
2022-11-04T14:38:39.597Z,17.15
2022-11-04T14:41:41.400Z,18.53
2022-11-04T14:44:50.314Z,16.60
2022-11-04T14:47:56.223Z,18.40
2022-11-04T14:50:58.684Z,17.80
2022-11-04T14:54:12.906Z,18.47
2022-11-04T14:57:20.589Z,19.93
2022-11-04T15:00:50.106Z,21.33
2022-11-04T15:07:33.804Z,21.00
2022-11-04T15:10:35.950Z,21.37
2022-11-04T15:13:44.724Z,20.40
2022-11-04T15:16:51.023Z,20.87
2022-11-04T15:19:56.039Z,21.10
2022-11-04T15:23:01.535Z,21.50
2022-11-04T15:26:05.100Z,21.93
2022-11-04T15:29:12.906Z,20.97
2022-11-04T15:32:18.046Z,20.53
2022-11-04T15:35:21.165Z,21.00
2022-11-04T15:38:27.183Z,22.20
2022-11-04T15:41:51.114Z,20.67
2022-11-04T15:44:55.020Z,19.17
2022-11-04T15:48:28.476Z,21.03
2022-11-04T15:51:36.028Z,20.97
2022-11-04T15:54:42.425Z,18.47
2022-11-04T15:57:45.299Z,21.47
2022-11-04T16:00:55.826Z,19.57
2022-11-04T16:04:02.676Z,20.37
2022-11-04T16:07:11.071Z,21.60
2022-11-04T16:10:24.995Z,21.67
2022-11-04T16:13:27.812Z,21.27
2022-11-04T16:16:29.785Z,20.97
2022-11-04T16:19:32.351Z,19.57
2022-11-04T16:22:42.424Z,21.00
2022-11-04T16:25:44.931Z,20.97
2022-11-04T16:28:46.854Z,20.63
2022-11-04T16:32:08.177Z,20.40
2022-11-04T16:35:20.119Z,20.07
2022-11-04T16:38:22.663Z,21.90
2022-11-04T16:41:27.094Z,21.77
2022-11-04T16:44:29.590Z,21.13
2022-11-04T16:47:34.764Z,24.20
2022-11-04T16:50:36.974Z,24.67
2022-11-04T16:53:38.918Z,24.37
2022-11-04T16:56:41.099Z,30.30
2022-11-04T16:59:43.429Z,27.63
2022-11-04T17:02:46.195Z,28.87
2022-11-04T17:05:58.967Z,26.03
2022-11-04T17:09:02.359Z,24.83
2022-11-04T17:12:04.573Z,30.77
2022-11-04T17:15:08.019Z,29.93
2022-11-04T17:18:16.743Z,32.47
2022-11-04T17:21:20.505Z,31.43
2022-11-04T17:24:22.407Z,29.80
2022-11-04T17:27:25.695Z,27.03
2022-11-04T17:30:27.778Z,32.60
2022-11-04T17:33:29.961Z,28.20
2022-11-04T17:36:32.299Z,24.73
2022-11-04T17:39:34.652Z,26.20
2022-11-04T17:42:54.885Z,28.53
2022-11-04T17:46:17.021Z,26.37
2022-11-04T17:49:24.396Z,24.23
2022-11-04T17:52:27.749Z,31.37
2022-11-04T17:55:29.951Z,35.00
2022-11-04T17:58:32.423Z,25.07
2022-11-04T18:01:35.870Z,24.93
2022-11-04T18:04:38.198Z,25.73
2022-11-04T18:07:40.122Z,27.70
2022-11-04T18:10:42.349Z,26.17
2022-11-04T18:13:44.314Z,26.43
2022-11-04T18:16:49.695Z,25.33
2022-11-04T18:19:52.417Z,25.17
2022-11-04T18:22:54.835Z,25.77
2022-11-04T18:26:08.557Z,23.57
2022-11-04T18:29:11.136Z,24.17
2022-11-04T18:32:13.199Z,25.97
2022-11-04T18:35:15.509Z,33.83
2022-11-04T18:38:17.511Z,30.73
2022-11-04T18:41:19.892Z,31.13
2022-11-04T18:44:22.680Z,25.40
2022-11-04T18:47:26.725Z,26.07
2022-11-04T18:50:30.195Z,25.90
2022-11-04T18:53:32.404Z,38.20
2022-11-04T18:56:35.056Z,36.17
2022-11-04T18:59:37.822Z,26.80
2022-11-04T19:02:40.009Z,25.37
2022-11-04T19:05:42.685Z,24.43
2022-11-04T19:08:46.988Z,27.47
2022-11-04T19:12:09.583Z,27.10
2022-11-04T19:15:11.608Z,25.90
2022-11-04T19:18:15.037Z,25.80
2022-11-04T19:21:19.940Z,29.87
2022-11-04T19:24:22.215Z,25.37
2022-11-04T19:27:25.060Z,25.23
2022-11-04T19:30:27.544Z,26.23
2022-11-04T19:33:30.469Z,26.23
2022-11-04T19:36:34.428Z,27.33
2022-11-04T19:39:36.757Z,30.03
2022-11-04T19:42:57.451Z,31.10
2022-11-04T19:46:05.711Z,29.83
2022-11-04T19:49:13.216Z,30.87
2022-11-04T19:52:19.166Z,29.53
2022-11-04T19:55:26.625Z,31.93
2022-11-04T19:58:29.330Z,35.40
2022-11-04T20:01:34.506Z,36.23
2022-11-04T20:04:45.964Z,34.13
2022-11-04T20:07:54.297Z,36.83
2022-11-04T20:10:56.707Z,37.17
2022-11-04T20:14:04.752Z,36.90
2022-11-04T20:17:09.996Z,33.93
2022-11-04T20:20:13.064Z,32.67
2022-11-04T20:23:15.256Z,33.33
2022-11-04T20:26:20.921Z,34.47
2022-11-04T20:29:23.203Z,33.43
2022-11-04T20:32:25.341Z,32.03
2022-11-04T20:35:27.809Z,31.47
2022-11-04T20:38:30.506Z,34.33
2022-11-04T20:41:33.098Z,34.20
2022-11-04T20:44:35.708Z,32.20
2022-11-04T20:47:37.779Z,32.13
2022-11-04T20:50:40.311Z,32.07
2022-11-04T20:53:43.493Z,32.83
2022-11-04T20:56:45.752Z,34.03
2022-11-04T20:59:47.756Z,35.93
2022-11-04T21:02:50.533Z,41.50
2022-11-04T21:05:53.129Z,39.40
2022-11-04T21:08:58.189Z,40.37
2022-11-04T21:12:00.205Z,40.00
2022-11-04T21:15:02.475Z,38.27
2022-11-04T21:18:04.947Z,39.43
2022-11-04T21:21:09.321Z,36.53
2022-11-04T21:24:13.796Z,37.07
2022-11-04T21:27:16.019Z,37.13
2022-11-04T21:30:18.175Z,35.67
2022-11-04T21:33:20.919Z,33.13
2022-11-04T21:36:26.636Z,33.97
2022-11-04T21:39:30.505Z,34.43
2022-11-04T21:42:41.931Z,33.93
2022-11-04T21:58:51.841Z,31.13
2022-11-04T22:01:54.224Z,32.03
2022-11-04T22:04:56.284Z,31.67
2022-11-04T22:08:16.499Z,33.33
2022-11-04T22:11:25.214Z,32.07
2022-11-04T22:14:28.310Z,31.37
2022-11-04T22:17:30.208Z,32.03
2022-11-04T22:20:35.018Z,35.73
2022-11-04T22:43:21.133Z,32.57
2022-11-04T22:46:28.862Z,32.03
2022-11-04T22:49:30.786Z,31.03
2022-11-04T22:52:32.936Z,29.13
2022-11-04T22:55:36.170Z,31.97
2022-11-04T22:58:38.961Z,29.60
2022-11-04T23:01:40.953Z,29.50
2022-11-04T23:04:44.955Z,30.90
2022-11-04T23:07:46.922Z,29.17
2022-11-04T23:11:07.756Z,28.63
2022-11-04T23:14:32.099Z,30.17
2022-11-04T23:17:53.118Z,29.37
2022-11-04T23:21:15.156Z,29.43
2022-11-04T23:24:36.045Z,28.93
2022-11-04T23:28:08.277Z,28.63
2022-11-04T23:31:10.397Z,28.60
2022-11-04T23:34:31.006Z,29.50
2022-11-04T23:37:33.203Z,29.80
2022-11-04T23:40:35.177Z,29.87
2022-11-04T23:43:37.309Z,29.43
2022-11-04T23:46:57.619Z,29.07
2022-11-04T23:50:18.579Z,29.43
2022-11-04T23:53:39.549Z,29.17
2022-11-04T23:57:16.989Z,30.63
